sensor_id;sensor_type;location;lat;lon;timestamp;temperature;humidity
15359;DHT22;7779;49.596;11.070;2023-07-29T00:02:08;20.30;83.10
15359;DHT22;7779;49.596;11.070;2023-07-29T00:04:34;20.20;83.00
15359;DHT22;7779;49.596;11.070;2023-07-29T00:07:00;20.20;83.00
15359;DHT22;7779;49.596;11.070;2023-07-29T00:09:25;20.20;83.50
15359;DHT22;7779;49.596;11.070;2023-07-29T00:11:51;20.20;82.90
15359;DHT22;7779;49.596;11.070;2023-07-29T00:14:17;20.20;82.80
15359;DHT22;7779;49.596;11.070;2023-07-29T00:16:42;20.20;82.70
15359;DHT22;7779;49.596;11.070;2023-07-29T00:19:08;20.10;82.60
15359;DHT22;7779;49.596;11.070;2023-07-29T00:21:34;20.10;82.60
15359;DHT22;7779;49.596;11.070;2023-07-29T00:24:00;20.10;82.70
15359;DHT22;7779;49.596;11.070;2023-07-29T00:26:27;20.10;82.80
15359;DHT22;7779;49.596;11.070;2023-07-29T00:28:55;20.00;83.40
15359;DHT22;7779;49.596;11.070;2023-07-29T00:31:21;20.00;82.70
15359;DHT22;7779;49.596;11.070;2023-07-29T00:33:47;20.00;82.80
15359;DHT22;7779;49.596;11.070;2023-07-29T00:36:14;20.00;82.90
15359;DHT22;7779;49.596;11.070;2023-07-29T00:38:39;20.00;82.90
15359;DHT22;7779;49.596;11.070;2023-07-29T00:41:05;20.00;82.90
15359;DHT22;7779;49.596;11.070;2023-07-29T00:43:31;19.90;82.80
15359;DHT22;7779;49.596;11.070;2023-07-29T00:45:57;19.90;82.80
15359;DHT22;7779;49.596;11.070;2023-07-29T00:48:23;19.90;82.90
15359;DHT22;7779;49.596;11.070;2023-07-29T00:50:50;19.90;83.10
15359;DHT22;7779;49.596;11.070;2023-07-29T00:53:16;19.90;83.30
15359;DHT22;7779;49.596;11.070;2023-07-29T00:55:42;19.90;83.40
15359;DHT22;7779;49.596;11.070;2023-07-29T00:58:08;19.80;83.50
15359;DHT22;7779;49.596;11.070;2023-07-29T01:00:35;19.80;83.80
15359;DHT22;7779;49.596;11.070;2023-07-29T01:03:03;19.80;83.90
15359;DHT22;7779;49.596;11.070;2023-07-29T01:05:40;19.80;84.00
15359;DHT22;7779;49.596;11.070;2023-07-29T01:08:33;19.80;84.20
15359;DHT22;7779;49.596;11.070;2023-07-29T01:11:35;19.90;84.30
15359;DHT22;7779;49.596;11.070;2023-07-29T01:14:27;19.90;85.00
15359;DHT22;7779;49.596;11.070;2023-07-29T01:17:09;19.90;85.00
15359;DHT22;7779;49.596;11.070;2023-07-29T01:20:01;19.90;84.20
15359;DHT22;7779;49.596;11.070;2023-07-29T01:22:34;19.90;85.10
15359;DHT22;7779;49.596;11.070;2023-07-29T01:25:02;19.90;84.10
15359;DHT22;7779;49.596;11.070;2023-07-29T01:27:28;19.90;84.10
15359;DHT22;7779;49.596;11.070;2023-07-29T01:29:55;19.90;84.20
15359;DHT22;7779;49.596;11.070;2023-07-29T01:32:34;19.90;84.30
15359;DHT22;7779;49.596;11.070;2023-07-29T01:35:36;19.90;84.90
15359;DHT22;7779;49.596;11.070;2023-07-29T01:38:20;19.90;85.40
15359;DHT22;7779;49.596;11.070;2023-07-29T01:40:54;20.00;85.10
15359;DHT22;7779;49.596;11.070;2023-07-29T01:43:21;19.90;84.30
15359;DHT22;7779;49.596;11.070;2023-07-29T01:45:52;20.00;84.30
15359;DHT22;7779;49.596;11.070;2023-07-29T01:48:17;19.90;84.00
15359;DHT22;7779;49.596;11.070;2023-07-29T01:50:43;19.90;83.80
15359;DHT22;7779;49.596;11.070;2023-07-29T01:53:09;19.90;83.40
15359;DHT22;7779;49.596;11.070;2023-07-29T01:55:35;19.90;83.10
15359;DHT22;7779;49.596;11.070;2023-07-29T01:58:00;19.90;82.90
15359;DHT22;7779;49.596;11.070;2023-07-29T02:00:27;19.90;82.70
15359;DHT22;7779;49.596;11.070;2023-07-29T02:02:52;19.80;82.40
15359;DHT22;7779;49.596;11.070;2023-07-29T02:05:18;19.80;82.20
15359;DHT22;7779;49.596;11.070;2023-07-29T02:07:44;19.70;82.00
15359;DHT22;7779;49.596;11.070;2023-07-29T02:10:10;19.70;81.90
15359;DHT22;7779;49.596;11.070;2023-07-29T02:12:35;19.60;81.80
15359;DHT22;7779;49.596;11.070;2023-07-29T02:15:01;19.60;81.80
15359;DHT22;7779;49.596;11.070;2023-07-29T02:17:27;19.50;81.80
15359;DHT22;7779;49.596;11.070;2023-07-29T02:19:53;19.50;81.90
15359;DHT22;7779;49.596;11.070;2023-07-29T02:22:18;19.40;81.90
15359;DHT22;7779;49.596;11.070;2023-07-29T02:24:44;19.40;82.00
15359;DHT22;7779;49.596;11.070;2023-07-29T02:27:11;19.30;81.90
15359;DHT22;7779;49.596;11.070;2023-07-29T02:29:37;19.30;81.80
15359;DHT22;7779;49.596;11.070;2023-07-29T02:32:03;19.20;81.80
15359;DHT22;7779;49.596;11.070;2023-07-29T02:34:29;19.10;81.80
15359;DHT22;7779;49.596;11.070;2023-07-29T02:36:56;19.10;81.90
15359;DHT22;7779;49.596;11.070;2023-07-29T02:39:22;19.00;82.00
15359;DHT22;7779;49.596;11.070;2023-07-29T02:41:49;19.00;82.20
15359;DHT22;7779;49.596;11.070;2023-07-29T02:44:15;18.90;82.20
15359;DHT22;7779;49.596;11.070;2023-07-29T02:46:41;18.90;82.40
15359;DHT22;7779;49.596;11.070;2023-07-29T02:49:07;18.80;82.50
15359;DHT22;7779;49.596;11.070;2023-07-29T02:51:33;18.80;82.50
15359;DHT22;7779;49.596;11.070;2023-07-29T02:53:58;18.70;82.40
15359;DHT22;7779;49.596;11.070;2023-07-29T02:56:24;18.70;82.50
15359;DHT22;7779;49.596;11.070;2023-07-29T02:58:50;18.60;82.60
15359;DHT22;7779;49.596;11.070;2023-07-29T03:01:18;18.60;82.70
15359;DHT22;7779;49.596;11.070;2023-07-29T03:03:44;18.60;82.80
15359;DHT22;7779;49.596;11.070;2023-07-29T03:06:13;18.50;82.80
15359;DHT22;7779;49.596;11.070;2023-07-29T03:08:39;18.50;83.00
15359;DHT22;7779;49.596;11.070;2023-07-29T03:11:10;18.40;83.00
15359;DHT22;7779;49.596;11.070;2023-07-29T03:13:37;18.40;83.70
15359;DHT22;7779;49.596;11.070;2023-07-29T03:16:07;18.40;83.50
15359;DHT22;7779;49.596;11.070;2023-07-29T03:18:36;18.30;84.10
15359;DHT22;7779;49.596;11.070;2023-07-29T03:21:03;18.40;84.00
15359;DHT22;7779;49.596;11.070;2023-07-29T03:23:30;18.30;84.00
15359;DHT22;7779;49.596;11.070;2023-07-29T03:25:58;18.30;84.00
15359;DHT22;7779;49.596;11.070;2023-07-29T03:28:28;18.20;83.80
15359;DHT22;7779;49.596;11.070;2023-07-29T03:30:56;18.20;84.10
15359;DHT22;7779;49.596;11.070;2023-07-29T03:33:22;18.20;83.70
15359;DHT22;7779;49.596;11.070;2023-07-29T03:35:48;18.20;83.60
15359;DHT22;7779;49.596;11.070;2023-07-29T03:38:14;18.10;84.40
15359;DHT22;7779;49.596;11.070;2023-07-29T03:40:41;18.20;83.70
15359;DHT22;7779;49.596;11.070;2023-07-29T03:43:07;18.10;83.60
15359;DHT22;7779;49.596;11.070;2023-07-29T03:45:35;18.10;84.40
15359;DHT22;7779;49.596;11.070;2023-07-29T03:48:01;18.10;83.90
15359;DHT22;7779;49.596;11.070;2023-07-29T03:50:29;18.00;84.00
15359;DHT22;7779;49.596;11.070;2023-07-29T03:52:55;18.00;84.10
15359;DHT22;7779;49.596;11.070;2023-07-29T03:55:22;18.00;84.20
15359;DHT22;7779;49.596;11.070;2023-07-29T03:57:47;18.00;84.30
15359;DHT22;7779;49.596;11.070;2023-07-29T04:00:13;18.00;84.00
15359;DHT22;7779;49.596;11.070;2023-07-29T04:02:42;18.00;84.50
15359;DHT22;7779;49.596;11.070;2023-07-29T04:05:10;18.00;84.70
15359;DHT22;7779;49.596;11.070;2023-07-29T04:07:36;18.00;84.90
15359;DHT22;7779;49.596;11.070;2023-07-29T04:10:02;18.00;85.10
15359;DHT22;7779;49.596;11.070;2023-07-29T04:12:30;18.00;85.50
15359;DHT22;7779;49.596;11.070;2023-07-29T04:14:56;18.00;85.90
15359;DHT22;7779;49.596;11.070;2023-07-29T04:17:22;18.00;86.30
15359;DHT22;7779;49.596;11.070;2023-07-29T04:19:48;18.00;86.60
15359;DHT22;7779;49.596;11.070;2023-07-29T04:22:15;18.00;86.90
15359;DHT22;7779;49.596;11.070;2023-07-29T04:24:41;18.10;87.30
15359;DHT22;7779;49.596;11.070;2023-07-29T04:27:07;18.20;87.70
15359;DHT22;7779;49.596;11.070;2023-07-29T04:29:33;18.20;88.00
15359;DHT22;7779;49.596;11.070;2023-07-29T04:32:03;18.20;88.40
15359;DHT22;7779;49.596;11.070;2023-07-29T04:34:30;18.40;88.90
15359;DHT22;7779;49.596;11.070;2023-07-29T04:36:56;18.40;89.10
15359;DHT22;7779;49.596;11.070;2023-07-29T04:39:22;18.50;89.40
15359;DHT22;7779;49.596;11.070;2023-07-29T04:41:48;18.60;89.80
15359;DHT22;7779;49.596;11.070;2023-07-29T04:44:14;18.70;90.10
15359;DHT22;7779;49.596;11.070;2023-07-29T04:46:40;18.80;90.30
15359;DHT22;7779;49.596;11.070;2023-07-29T04:49:06;18.90;90.60
15359;DHT22;7779;49.596;11.070;2023-07-29T04:51:32;19.10;90.90
15359;DHT22;7779;49.596;11.070;2023-07-29T04:53:58;19.20;91.10
15359;DHT22;7779;49.596;11.070;2023-07-29T04:56:25;19.40;91.10
15359;DHT22;7779;49.596;11.070;2023-07-29T04:58:50;19.50;91.40
15359;DHT22;7779;49.596;11.070;2023-07-29T05:01:16;19.70;91.60
15359;DHT22;7779;49.596;11.070;2023-07-29T05:03:42;19.90;91.30
15359;DHT22;7779;49.596;11.070;2023-07-29T05:06:08;20.10;90.70
15359;DHT22;7779;49.596;11.070;2023-07-29T05:08:34;20.20;90.20
15359;DHT22;7779;49.596;11.070;2023-07-29T05:11:00;20.40;89.40
15359;DHT22;7779;49.596;11.070;2023-07-29T05:13:25;20.50;88.50
15359;DHT22;7779;49.596;11.070;2023-07-29T05:15:51;20.60;87.80
15359;DHT22;7779;49.596;11.070;2023-07-29T05:18:18;20.60;86.00
15359;DHT22;7779;49.596;11.070;2023-07-29T05:20:44;20.60;86.40
15359;DHT22;7779;49.596;11.070;2023-07-29T05:23:09;20.60;86.00
15359;DHT22;7779;49.596;11.070;2023-07-29T05:25:35;20.70;85.80
15359;DHT22;7779;49.596;11.070;2023-07-29T05:28:02;20.70;85.60
15359;DHT22;7779;49.596;11.070;2023-07-29T05:30:29;20.80;86.20
15359;DHT22;7779;49.596;11.070;2023-07-29T05:33:00;20.80;85.40
15359;DHT22;7779;49.596;11.070;2023-07-29T05:35:26;20.80;85.00
15359;DHT22;7779;49.596;11.070;2023-07-29T05:37:52;20.80;85.00
15359;DHT22;7779;49.596;11.070;2023-07-29T05:40:18;20.80;84.90
15359;DHT22;7779;49.596;11.070;2023-07-29T05:42:43;20.80;84.70
15359;DHT22;7779;49.596;11.070;2023-07-29T05:45:11;20.80;84.40
15359;DHT22;7779;49.596;11.070;2023-07-29T05:47:37;20.80;84.20
15359;DHT22;7779;49.596;11.070;2023-07-29T05:50:04;20.90;84.30
15359;DHT22;7779;49.596;11.070;2023-07-29T05:52:31;20.90;84.40
15359;DHT22;7779;49.596;11.070;2023-07-29T05:54:57;20.90;84.70
15359;DHT22;7779;49.596;11.070;2023-07-29T05:57:22;20.90;84.80
15359;DHT22;7779;49.596;11.070;2023-07-29T05:59:48;20.90;84.90
15359;DHT22;7779;49.596;11.070;2023-07-29T06:02:14;21.00;85.20
15359;DHT22;7779;49.596;11.070;2023-07-29T06:04:40;21.00;85.10
15359;DHT22;7779;49.596;11.070;2023-07-29T06:07:07;21.10;85.00
15359;DHT22;7779;49.596;11.070;2023-07-29T06:09:33;21.10;83.80
15359;DHT22;7779;49.596;11.070;2023-07-29T06:11:59;21.20;84.80
15359;DHT22;7779;49.596;11.070;2023-07-29T06:14:25;21.20;84.40
15359;DHT22;7779;49.596;11.070;2023-07-29T06:16:51;21.20;84.20
15359;DHT22;7779;49.596;11.070;2023-07-29T06:19:19;21.20;83.90
15359;DHT22;7779;49.596;11.070;2023-07-29T06:21:46;21.20;83.60
15359;DHT22;7779;49.596;11.070;2023-07-29T06:24:11;21.20;83.20
15359;DHT22;7779;49.596;11.070;2023-07-29T06:26:37;21.20;82.90
15359;DHT22;7779;49.596;11.070;2023-07-29T06:29:03;21.20;82.70
15359;DHT22;7779;49.596;11.070;2023-07-29T06:31:29;21.20;82.60
15359;DHT22;7779;49.596;11.070;2023-07-29T06:33:56;21.20;82.50
15359;DHT22;7779;49.596;11.070;2023-07-29T06:36:21;21.20;82.60
15359;DHT22;7779;49.596;11.070;2023-07-29T06:38:47;21.20;82.80
15359;DHT22;7779;49.596;11.070;2023-07-29T06:41:13;21.10;82.90
15359;DHT22;7779;49.596;11.070;2023-07-29T06:43:39;21.10;83.10
15359;DHT22;7779;49.596;11.070;2023-07-29T06:46:05;21.10;83.40
15359;DHT22;7779;49.596;11.070;2023-07-29T06:48:30;21.20;83.70
15359;DHT22;7779;49.596;11.070;2023-07-29T06:50:56;21.20;83.70
15359;DHT22;7779;49.596;11.070;2023-07-29T06:53:26;21.20;83.60
15359;DHT22;7779;49.596;11.070;2023-07-29T06:55:52;21.20;83.20
15359;DHT22;7779;49.596;11.070;2023-07-29T06:58:18;21.10;82.80
15359;DHT22;7779;49.596;11.070;2023-07-29T07:00:44;21.10;82.60
15359;DHT22;7779;49.596;11.070;2023-07-29T07:03:10;21.10;82.50
15359;DHT22;7779;49.596;11.070;2023-07-29T07:05:36;21.00;82.30
15359;DHT22;7779;49.596;11.070;2023-07-29T07:08:01;21.00;82.30
15359;DHT22;7779;49.596;11.070;2023-07-29T07:10:27;20.90;82.30
15359;DHT22;7779;49.596;11.070;2023-07-29T07:12:53;20.80;82.20
15359;DHT22;7779;49.596;11.070;2023-07-29T07:15:19;20.70;82.40
15359;DHT22;7779;49.596;11.070;2023-07-29T07:17:44;20.70;82.70
15359;DHT22;7779;49.596;11.070;2023-07-29T07:20:10;20.70;82.90
15359;DHT22;7779;49.596;11.070;2023-07-29T07:22:36;20.60;83.00
15359;DHT22;7779;49.596;11.070;2023-07-29T07:25:03;20.60;83.20
15359;DHT22;7779;49.596;11.070;2023-07-29T07:27:29;20.60;83.50
15359;DHT22;7779;49.596;11.070;2023-07-29T07:29:54;20.60;83.90
15359;DHT22;7779;49.596;11.070;2023-07-29T07:32:20;20.50;84.20
15359;DHT22;7779;49.596;11.070;2023-07-29T07:34:46;20.50;84.50
15359;DHT22;7779;49.596;11.070;2023-07-29T07:37:11;20.50;84.90
15359;DHT22;7779;49.596;11.070;2023-07-29T07:39:37;20.50;85.30
15359;DHT22;7779;49.596;11.070;2023-07-29T07:42:03;20.50;85.70
15359;DHT22;7779;49.596;11.070;2023-07-29T07:44:30;20.60;86.30
15359;DHT22;7779;49.596;11.070;2023-07-29T07:46:55;20.60;86.80
15359;DHT22;7779;49.596;11.070;2023-07-29T07:49:22;20.70;87.20
15359;DHT22;7779;49.596;11.070;2023-07-29T07:51:48;20.80;87.50
15359;DHT22;7779;49.596;11.070;2023-07-29T07:54:13;20.80;87.80
15359;DHT22;7779;49.596;11.070;2023-07-29T07:56:39;20.80;88.00
15359;DHT22;7779;49.596;11.070;2023-07-29T07:59:05;20.90;88.00
15359;DHT22;7779;49.596;11.070;2023-07-29T08:01:37;21.00;88.10
15359;DHT22;7779;49.596;11.070;2023-07-29T08:04:05;21.10;88.20
15359;DHT22;7779;49.596;11.070;2023-07-29T08:06:32;21.10;87.60
15359;DHT22;7779;49.596;11.070;2023-07-29T08:08:58;21.20;87.40
15359;DHT22;7779;49.596;11.070;2023-07-29T08:11:25;21.20;87.00
15359;DHT22;7779;49.596;11.070;2023-07-29T08:13:51;21.20;86.70
15359;DHT22;7779;49.596;11.070;2023-07-29T08:16:16;21.30;86.70
15359;DHT22;7779;49.596;11.070;2023-07-29T08:18:42;21.30;86.70
15359;DHT22;7779;49.596;11.070;2023-07-29T08:21:08;21.30;86.70
15359;DHT22;7779;49.596;11.070;2023-07-29T08:23:35;21.40;86.70
15359;DHT22;7779;49.596;11.070;2023-07-29T08:26:05;21.40;86.70
15359;DHT22;7779;49.596;11.070;2023-07-29T08:28:34;21.40;86.50
15359;DHT22;7779;49.596;11.070;2023-07-29T08:31:01;21.40;86.30
15359;DHT22;7779;49.596;11.070;2023-07-29T08:33:27;21.50;86.40
15359;DHT22;7779;49.596;11.070;2023-07-29T08:35:54;21.50;86.30
15359;DHT22;7779;49.596;11.070;2023-07-29T08:38:20;21.60;86.50
15359;DHT22;7779;49.596;11.070;2023-07-29T08:40:58;21.60;86.50
15359;DHT22;7779;49.596;11.070;2023-07-29T08:43:32;21.60;86.50
15359;DHT22;7779;49.596;11.070;2023-07-29T08:45:59;21.60;86.20
15359;DHT22;7779;49.596;11.070;2023-07-29T08:48:39;21.60;86.00
15359;DHT22;7779;49.596;11.070;2023-07-29T08:51:08;21.60;86.00
15359;DHT22;7779;49.596;11.070;2023-07-29T08:53:35;21.70;86.00
15359;DHT22;7779;49.596;11.070;2023-07-29T08:56:02;21.70;86.10
15359;DHT22;7779;49.596;11.070;2023-07-29T08:58:29;21.70;85.90
15359;DHT22;7779;49.596;11.070;2023-07-29T09:00:55;21.70;86.20
15359;DHT22;7779;49.596;11.070;2023-07-29T09:03:21;21.70;86.30
15359;DHT22;7779;49.596;11.070;2023-07-29T09:05:47;21.70;86.40
15359;DHT22;7779;49.596;11.070;2023-07-29T09:08:14;21.80;86.60
15359;DHT22;7779;49.596;11.070;2023-07-29T09:10:40;21.80;86.50
15359;DHT22;7779;49.596;11.070;2023-07-29T09:13:07;21.80;86.50
15359;DHT22;7779;49.596;11.070;2023-07-29T09:15:34;21.90;86.70
15359;DHT22;7779;49.596;11.070;2023-07-29T09:18:12;21.90;86.70
15359;DHT22;7779;49.596;11.070;2023-07-29T09:20:40;21.90;87.00
15359;DHT22;7779;49.596;11.070;2023-07-29T09:23:10;22.00;87.00
15359;DHT22;7779;49.596;11.070;2023-07-29T09:25:36;22.10;87.00
15359;DHT22;7779;49.596;11.070;2023-07-29T09:28:09;22.10;86.90
15359;DHT22;7779;49.596;11.070;2023-07-29T09:30:38;22.20;86.40
15359;DHT22;7779;49.596;11.070;2023-07-29T09:33:05;22.20;85.90
15359;DHT22;7779;49.596;11.070;2023-07-29T09:35:33;22.10;85.20
15359;DHT22;7779;49.596;11.070;2023-07-29T09:38:00;22.10;84.60
15359;DHT22;7779;49.596;11.070;2023-07-29T09:40:27;22.10;84.10
15359;DHT22;7779;49.596;11.070;2023-07-29T09:42:59;22.10;83.80
15359;DHT22;7779;49.596;11.070;2023-07-29T09:45:27;22.00;83.70
15359;DHT22;7779;49.596;11.070;2023-07-29T09:47:53;22.00;83.70
15359;DHT22;7779;49.596;11.070;2023-07-29T09:50:29;21.90;84.00
15359;DHT22;7779;49.596;11.070;2023-07-29T09:52:55;21.90;85.00
15359;DHT22;7779;49.596;11.070;2023-07-29T09:55:24;21.90;85.70
15359;DHT22;7779;49.596;11.070;2023-07-29T09:58:01;21.90;86.80
15359;DHT22;7779;49.596;11.070;2023-07-29T10:00:30;22.00;87.90
15359;DHT22;7779;49.596;11.070;2023-07-29T10:03:00;22.10;89.40
15359;DHT22;7779;49.596;11.070;2023-07-29T10:05:27;22.40;90.30
15359;DHT22;7779;49.596;11.070;2023-07-29T10:07:54;22.50;90.60
15359;DHT22;7779;49.596;11.070;2023-07-29T10:10:21;22.70;90.70
15359;DHT22;7779;49.596;11.070;2023-07-29T10:12:47;22.90;90.70
15359;DHT22;7779;49.596;11.070;2023-07-29T10:15:13;23.10;90.60
15359;DHT22;7779;49.596;11.070;2023-07-29T10:17:40;23.20;90.70
15359;DHT22;7779;49.596;11.070;2023-07-29T10:20:08;23.50;90.70
15359;DHT22;7779;49.596;11.070;2023-07-29T10:22:39;23.70;90.80
15359;DHT22;7779;49.596;11.070;2023-07-29T10:25:10;24.00;90.80
15359;DHT22;7779;49.596;11.070;2023-07-29T10:27:43;24.20;90.80
15359;DHT22;7779;49.596;11.070;2023-07-29T10:30:15;24.50;90.10
15359;DHT22;7779;49.596;11.070;2023-07-29T10:32:45;24.70;90.00
15359;DHT22;7779;49.596;11.070;2023-07-29T10:35:13;24.80;88.30
15359;DHT22;7779;49.596;11.070;2023-07-29T10:37:41;24.90;87.70
15359;DHT22;7779;49.596;11.070;2023-07-29T10:40:09;25.10;86.60
15359;DHT22;7779;49.596;11.070;2023-07-29T10:43:08;25.20;85.40
15359;DHT22;7779;49.596;11.070;2023-07-29T10:45:39;25.20;82.80
15359;DHT22;7779;49.596;11.070;2023-07-29T10:48:10;25.30;83.00
15359;DHT22;7779;49.596;11.070;2023-07-29T10:50:37;25.30;82.60
15359;DHT22;7779;49.596;11.070;2023-07-29T10:53:04;25.40;83.10
15359;DHT22;7779;49.596;11.070;2023-07-29T10:55:35;25.40;82.70
15359;DHT22;7779;49.596;11.070;2023-07-29T11:00:43;25.40;81.80
15359;DHT22;7779;49.596;11.070;2023-07-29T11:03:11;25.40;81.70
15359;DHT22;7779;49.596;11.070;2023-07-29T11:05:52;25.40;81.30
15359;DHT22;7779;49.596;11.070;2023-07-29T11:08:31;25.40;79.70
15359;DHT22;7779;49.596;11.070;2023-07-29T11:11:04;25.40;79.60
15359;DHT22;7779;49.596;11.070;2023-07-29T11:13:38;25.30;80.20
15359;DHT22;7779;49.596;11.070;2023-07-29T11:16:04;25.30;80.30
15359;DHT22;7779;49.596;11.070;2023-07-29T11:18:32;25.20;79.80
15359;DHT22;7779;49.596;11.070;2023-07-29T11:21:00;25.20;79.70
15359;DHT22;7779;49.596;11.070;2023-07-29T11:23:36;25.20;79.70
15359;DHT22;7779;49.596;11.070;2023-07-29T11:26:04;25.10;79.20
15359;DHT22;7779;49.596;11.070;2023-07-29T11:28:30;25.00;78.70
15359;DHT22;7779;49.596;11.070;2023-07-29T11:30:56;24.90;79.20
15359;DHT22;7779;49.596;11.070;2023-07-29T11:33:25;24.90;79.20
15359;DHT22;7779;49.596;11.070;2023-07-29T11:35:53;24.80;79.30
15359;DHT22;7779;49.596;11.070;2023-07-29T11:38:21;24.70;78.40
15359;DHT22;7779;49.596;11.070;2023-07-29T11:40:59;24.70;79.30
15359;DHT22;7779;49.596;11.070;2023-07-29T11:43:26;24.70;79.00
15359;DHT22;7779;49.596;11.070;2023-07-29T11:45:52;24.60;79.50
15359;DHT22;7779;49.596;11.070;2023-07-29T11:48:26;24.50;79.60
15359;DHT22;7779;49.596;11.070;2023-07-29T11:50:56;24.50;79.30
15359;DHT22;7779;49.596;11.070;2023-07-29T11:53:27;24.50;80.00
15359;DHT22;7779;49.596;11.070;2023-07-29T11:55:54;24.50;80.00
15359;DHT22;7779;49.596;11.070;2023-07-29T11:58:20;24.50;80.30
15359;DHT22;7779;49.596;11.070;2023-07-29T12:00:46;24.50;80.50
15359;DHT22;7779;49.596;11.070;2023-07-29T12:03:12;24.50;80.60
15359;DHT22;7779;49.596;11.070;2023-07-29T12:05:40;24.50;80.40
15359;DHT22;7779;49.596;11.070;2023-07-29T12:08:07;24.50;80.30
15359;DHT22;7779;49.596;11.070;2023-07-29T12:10:34;24.50;80.20
15359;DHT22;7779;49.596;11.070;2023-07-29T12:13:02;24.50;80.30
15359;DHT22;7779;49.596;11.070;2023-07-29T12:15:29;24.60;80.40
15359;DHT22;7779;49.596;11.070;2023-07-29T12:17:56;24.60;80.50
15359;DHT22;7779;49.596;11.070;2023-07-29T12:20:23;24.60;80.50
15359;DHT22;7779;49.596;11.070;2023-07-29T12:25:20;24.70;80.00
15359;DHT22;7779;49.596;11.070;2023-07-29T12:27:47;24.80;80.30
15359;DHT22;7779;49.596;11.070;2023-07-29T12:30:13;24.80;80.50
15359;DHT22;7779;49.596;11.070;2023-07-29T12:32:46;24.80;80.70
15359;DHT22;7779;49.596;11.070;2023-07-29T12:35:12;24.90;80.20
15359;DHT22;7779;49.596;11.070;2023-07-29T12:37:39;25.00;81.00
15359;DHT22;7779;49.596;11.070;2023-07-29T12:40:29;25.10;80.80
15359;DHT22;7779;49.596;11.070;2023-07-29T12:42:54;25.20;80.40
15359;DHT22;7779;49.596;11.070;2023-07-29T12:45:20;25.30;80.30
15359;DHT22;7779;49.596;11.070;2023-07-29T12:47:48;25.40;80.10
15359;DHT22;7779;49.596;11.070;2023-07-29T12:50:14;25.50;79.30
15359;DHT22;7779;49.596;11.070;2023-07-29T12:52:39;25.60;78.40
15359;DHT22;7779;49.596;11.070;2023-07-29T12:55:06;25.70;78.00
15359;DHT22;7779;49.596;11.070;2023-07-29T12:57:34;25.80;77.70
15359;DHT22;7779;49.596;11.070;2023-07-29T13:00:01;25.90;77.20
15359;DHT22;7779;49.596;11.070;2023-07-29T13:02:27;26.00;76.40
15359;DHT22;7779;49.596;11.070;2023-07-29T13:04:53;26.00;75.60
15359;DHT22;7779;49.596;11.070;2023-07-29T13:07:19;26.10;75.20
15359;DHT22;7779;49.596;11.070;2023-07-29T13:09:44;26.10;74.80
15359;DHT22;7779;49.596;11.070;2023-07-29T13:12:10;26.10;74.60
15359;DHT22;7779;49.596;11.070;2023-07-29T13:14:36;26.20;74.40
15359;DHT22;7779;49.596;11.070;2023-07-29T13:17:01;26.20;74.40
15359;DHT22;7779;49.596;11.070;2023-07-29T13:19:27;26.30;74.30
15359;DHT22;7779;49.596;11.070;2023-07-29T13:21:53;26.30;74.00
15359;DHT22;7779;49.596;11.070;2023-07-29T13:24:18;26.30;73.80
15359;DHT22;7779;49.596;11.070;2023-07-29T13:26:44;26.40;73.40
15359;DHT22;7779;49.596;11.070;2023-07-29T13:29:10;26.30;73.00
15359;DHT22;7779;49.596;11.070;2023-07-29T13:31:35;26.30;72.70
15359;DHT22;7779;49.596;11.070;2023-07-29T13:34:01;26.30;72.50
15359;DHT22;7779;49.596;11.070;2023-07-29T13:36:27;26.30;72.60
15359;DHT22;7779;49.596;11.070;2023-07-29T13:38:52;26.30;72.80
15359;DHT22;7779;49.596;11.070;2023-07-29T13:41:18;26.40;73.00
15359;DHT22;7779;49.596;11.070;2023-07-29T13:43:44;26.40;73.00
15359;DHT22;7779;49.596;11.070;2023-07-29T13:46:09;26.40;72.60
15359;DHT22;7779;49.596;11.070;2023-07-29T13:48:35;26.60;72.70
15359;DHT22;7779;49.596;11.070;2023-07-29T13:51:01;26.60;72.60
15359;DHT22;7779;49.596;11.070;2023-07-29T13:53:26;26.70;73.20
15359;DHT22;7779;49.596;11.070;2023-07-29T13:55:52;26.80;72.50
15359;DHT22;7779;49.596;11.070;2023-07-29T13:58:18;26.80;73.00
15359;DHT22;7779;49.596;11.070;2023-07-29T14:00:44;26.90;72.20
15359;DHT22;7779;49.596;11.070;2023-07-29T14:03:09;27.00;71.70
15359;DHT22;7779;49.596;11.070;2023-07-29T14:05:35;27.10;70.90
15359;DHT22;7779;49.596;11.070;2023-07-29T14:08:01;27.10;70.40
15359;DHT22;7779;49.596;11.070;2023-07-29T14:10:26;27.20;69.80
15359;DHT22;7779;49.596;11.070;2023-07-29T14:12:52;27.20;69.00
15359;DHT22;7779;49.596;11.070;2023-07-29T14:15:18;27.20;68.50
15359;DHT22;7779;49.596;11.070;2023-07-29T14:17:44;27.30;68.00
15359;DHT22;7779;49.596;11.070;2023-07-29T14:20:10;27.30;67.70
15359;DHT22;7779;49.596;11.070;2023-07-29T14:22:36;27.30;67.40
15359;DHT22;7779;49.596;11.070;2023-07-29T14:25:02;27.20;67.10
15359;DHT22;7779;49.596;11.070;2023-07-29T14:27:28;27.30;67.20
15359;DHT22;7779;49.596;11.070;2023-07-29T14:29:53;27.30;67.20
15359;DHT22;7779;49.596;11.070;2023-07-29T14:32:19;27.30;67.10
15359;DHT22;7779;49.596;11.070;2023-07-29T14:34:45;27.30;66.70
15359;DHT22;7779;49.596;11.070;2023-07-29T14:37:10;27.30;66.60
15359;DHT22;7779;49.596;11.070;2023-07-29T14:39:36;27.40;66.60
15359;DHT22;7779;49.596;11.070;2023-07-29T14:42:02;27.40;66.40
15359;DHT22;7779;49.596;11.070;2023-07-29T14:44:28;27.40;66.10
15359;DHT22;7779;49.596;11.070;2023-07-29T14:46:53;27.40;65.70
15359;DHT22;7779;49.596;11.070;2023-07-29T14:49:20;27.50;65.50
15359;DHT22;7779;49.596;11.070;2023-07-29T14:51:46;27.50;65.20
15359;DHT22;7779;49.596;11.070;2023-07-29T14:54:11;27.50;65.00
15359;DHT22;7779;49.596;11.070;2023-07-29T14:56:37;27.50;64.50
15359;DHT22;7779;49.596;11.070;2023-07-29T14:59:03;27.50;64.10
15359;DHT22;7779;49.596;11.070;2023-07-29T15:01:28;27.60;64.10
15359;DHT22;7779;49.596;11.070;2023-07-29T15:03:54;27.60;64.00
15359;DHT22;7779;49.596;11.070;2023-07-29T15:06:20;27.60;63.70
15359;DHT22;7779;49.596;11.070;2023-07-29T15:08:46;27.50;63.30
15359;DHT22;7779;49.596;11.070;2023-07-29T15:11:11;27.60;63.40
15359;DHT22;7779;49.596;11.070;2023-07-29T15:13:37;27.60;63.40
15359;DHT22;7779;49.596;11.070;2023-07-29T15:16:03;27.60;63.40
15359;DHT22;7779;49.596;11.070;2023-07-29T15:18:28;27.60;63.20
15359;DHT22;7779;49.596;11.070;2023-07-29T15:20:56;27.60;63.00
15359;DHT22;7779;49.596;11.070;2023-07-29T15:23:23;27.60;62.70
15359;DHT22;7779;49.596;11.070;2023-07-29T15:25:48;27.60;62.50
15359;DHT22;7779;49.596;11.070;2023-07-29T15:28:14;27.60;62.10
15359;DHT22;7779;49.596;11.070;2023-07-29T15:30:40;27.60;61.60
15359;DHT22;7779;49.596;11.070;2023-07-29T15:33:06;27.60;61.60
15359;DHT22;7779;49.596;11.070;2023-07-29T15:35:37;27.60;61.50
15359;DHT22;7779;49.596;11.070;2023-07-29T15:38:04;27.50;60.70